Main page
METAR-TAF:

METAR-TAF

Airports :

Olsztyn-Mazury Airport

Olsztyn, Poland

latitude: 53-28-55N, longitude: 20-56-16E, elevation: 141 m

Current weather observation

The report was made 31 minutes ago, at 02:00 UTC
Wind 2 kt from the East/Northeast
Temperature 7°C
Humidity 100%
Pressure 1020 hPa
Visibility 10 km or more
Shallow fog

METAR: EPSY 220200Z 07002KT 9999 MIFG NSC 07/07 Q1020

Time: 04:31 (02:31 UTC)

Forecast

The report was made 3 hours and 1 minutes ago, at 23:30 UTC
Forecast valid from 22 at 00 UTC to 22 at 09 UTC
Wind 3 kt from variable directions
Visibility 10 km or more
no clouds below 1500 m and no cumulonimbus

TAF: EPSY 212330Z 2200/2209 VRB03KT CAVOK

Weather observations and forecasts of more than 4000 airports (METAR and TAF reports).

The available stations are represented by yellow and red dots on the map.

Hover mouse over dot to see the name of the station.

Then click to see weather observations and forecasts.

To change the map : click on the green buttons with a black cross to zoom in, on the green button with a dash to zoom out, or on the green arrows for adjacent maps.


METAR-TAF: